sensor_id;sensor_type;location;lat;lon;timestamp;pressure;altitude;pressure_sealevel;temperature
33267;BMP180;19638;49.080;11.896;2022-11-22T00:00:51;94460.00;;;3.70
33267;BMP180;19638;49.080;11.896;2022-11-22T00:04:56;94466.00;;;3.60
33267;BMP180;19638;49.080;11.896;2022-11-22T00:08:59;94478.00;;;3.60
33267;BMP180;19638;49.080;11.896;2022-11-22T00:13:02;94481.00;;;3.50
33267;BMP180;19638;49.080;11.896;2022-11-22T00:17:06;94477.00;;;3.50
33267;BMP180;19638;49.080;11.896;2022-11-22T00:21:42;94460.00;;;3.40
33267;BMP180;19638;49.080;11.896;2022-11-22T00:25:45;94462.00;;;3.30
33267;BMP180;19638;49.080;11.896;2022-11-22T00:29:48;94469.00;;;3.30
33267;BMP180;19638;49.080;11.896;2022-11-22T00:33:51;94466.00;;;3.30
33267;BMP180;19638;49.080;11.896;2022-11-22T00:38:29;94446.00;;;3.20
33267;BMP180;19638;49.080;11.896;2022-11-22T00:42:32;94440.00;;;3.30
33267;BMP180;19638;49.080;11.896;2022-11-22T00:46:35;94437.00;;;3.30
33267;BMP180;19638;49.080;11.896;2022-11-22T00:51:12;94440.00;;;3.30
33267;BMP180;19638;49.080;11.896;2022-11-22T00:55:17;94443.00;;;3.30
33267;BMP180;19638;49.080;11.896;2022-11-22T00:59:20;94419.00;;;3.40
33267;BMP180;19638;49.080;11.896;2022-11-22T01:03:23;94439.00;;;3.40
33267;BMP180;19638;49.080;11.896;2022-11-22T01:07:26;94436.00;;;3.40
33267;BMP180;19638;49.080;11.896;2022-11-22T01:11:31;94442.00;;;3.50
33267;BMP180;19638;49.080;11.896;2022-11-22T01:16:06;94450.00;;;3.50
33267;BMP180;19638;49.080;11.896;2022-11-22T01:20:10;94452.00;;;3.50
33267;BMP180;19638;49.080;11.896;2022-11-22T01:24:13;94443.00;;;3.50
33267;BMP180;19638;49.080;11.896;2022-11-22T01:28:17;94444.00;;;3.50
33267;BMP180;19638;49.080;11.896;2022-11-22T01:32:20;94442.00;;;3.60
33267;BMP180;19638;49.080;11.896;2022-11-22T01:36:57;94447.00;;;3.50
33267;BMP180;19638;49.080;11.896;2022-11-22T01:41:00;94450.00;;;3.60
33267;BMP180;19638;49.080;11.896;2022-11-22T01:49:59;94441.00;;;3.50
33267;BMP180;19638;49.080;11.896;2022-11-22T01:54:07;94433.00;;;3.50
33267;BMP180;19638;49.080;11.896;2022-11-22T01:58:12;94438.00;;;3.50
33267;BMP180;19638;49.080;11.896;2022-11-22T02:02:16;94443.00;;;3.50
33267;BMP180;19638;49.080;11.896;2022-11-22T02:06:55;94426.00;;;3.50
33267;BMP180;19638;49.080;11.896;2022-11-22T02:11:01;94421.00;;;3.50
33267;BMP180;19638;49.080;11.896;2022-11-22T02:15:05;94419.00;;;3.40
33267;BMP180;19638;49.080;11.896;2022-11-22T02:19:13;94409.00;;;3.40
33267;BMP180;19638;49.080;11.896;2022-11-22T02:23:23;94418.00;;;3.40
33267;BMP180;19638;49.080;11.896;2022-11-22T02:27:29;94401.00;;;3.40
33267;BMP180;19638;49.080;11.896;2022-11-22T02:31:40;94402.00;;;3.40
33267;BMP180;19638;49.080;11.896;2022-11-22T02:35:44;94385.00;;;3.40
33267;BMP180;19638;49.080;11.896;2022-11-22T02:39:50;94395.00;;;3.40
33267;BMP180;19638;49.080;11.896;2022-11-22T02:44:23;94398.00;;;3.40
33267;BMP180;19638;49.080;11.896;2022-11-22T02:49:01;94407.00;;;3.30
33267;BMP180;19638;49.080;11.896;2022-11-22T02:53:04;94413.00;;;3.30
33267;BMP180;19638;49.080;11.896;2022-11-22T02:57:38;94421.00;;;3.20
33267;BMP180;19638;49.080;11.896;2022-11-22T03:01:43;94407.00;;;3.20
33267;BMP180;19638;49.080;11.896;2022-11-22T03:05:48;94411.00;;;3.20
33267;BMP180;19638;49.080;11.896;2022-11-22T03:10:24;94412.00;;;3.20
33267;BMP180;19638;49.080;11.896;2022-11-22T03:14:28;94429.00;;;3.30
33267;BMP180;19638;49.080;11.896;2022-11-22T03:18:33;94437.00;;;3.40
33267;BMP180;19638;49.080;11.896;2022-11-22T03:22:36;94437.00;;;3.50
33267;BMP180;19638;49.080;11.896;2022-11-22T03:26:39;94434.00;;;3.60
33267;BMP180;19638;49.080;11.896;2022-11-22T03:31:16;94446.00;;;3.70
33267;BMP180;19638;49.080;11.896;2022-11-22T03:35:21;94439.00;;;3.70
33267;BMP180;19638;49.080;11.896;2022-11-22T03:39:24;94454.00;;;3.70
33267;BMP180;19638;49.080;11.896;2022-11-22T03:43:27;94458.00;;;3.70
33267;BMP180;19638;49.080;11.896;2022-11-22T03:47:30;94453.00;;;3.70
33267;BMP180;19638;49.080;11.896;2022-11-22T03:51:35;94448.00;;;3.70
33267;BMP180;19638;49.080;11.896;2022-11-22T03:56:08;94436.00;;;3.70
33267;BMP180;19638;49.080;11.896;2022-11-22T04:04:48;94456.00;;;3.80
33267;BMP180;19638;49.080;11.896;2022-11-22T04:08:53;94461.00;;;3.80
33267;BMP180;19638;49.080;11.896;2022-11-22T04:13:27;94455.00;;;3.80
33267;BMP180;19638;49.080;11.896;2022-11-22T04:17:44;94459.00;;;3.80
33267;BMP180;19638;49.080;11.896;2022-11-22T04:21:48;94479.00;;;3.90
33267;BMP180;19638;49.080;11.896;2022-11-22T04:26:26;94480.00;;;3.90
33267;BMP180;19638;49.080;11.896;2022-11-22T04:30:29;94487.00;;;4.00
33267;BMP180;19638;49.080;11.896;2022-11-22T04:35:05;94487.00;;;4.00
33267;BMP180;19638;49.080;11.896;2022-11-22T04:39:08;94479.00;;;4.00
33267;BMP180;19638;49.080;11.896;2022-11-22T04:43:17;94480.00;;;4.00
33267;BMP180;19638;49.080;11.896;2022-11-22T04:47:38;94477.00;;;4.00
33267;BMP180;19638;49.080;11.896;2022-11-22T04:52:14;94479.00;;;4.00
33267;BMP180;19638;49.080;11.896;2022-11-22T04:56:34;94477.00;;;4.00
33267;BMP180;19638;49.080;11.896;2022-11-22T05:01:12;94477.00;;;4.10
33267;BMP180;19638;49.080;11.896;2022-11-22T05:05:16;94471.00;;;4.10
33267;BMP180;19638;49.080;11.896;2022-11-22T05:09:19;94461.00;;;4.20
33267;BMP180;19638;49.080;11.896;2022-11-22T05:18:00;94470.00;;;4.10
33267;BMP180;19638;49.080;11.896;2022-11-22T05:22:34;94468.00;;;4.10
33267;BMP180;19638;49.080;11.896;2022-11-22T05:27:10;94473.00;;;4.10
33267;BMP180;19638;49.080;11.896;2022-11-22T05:31:16;94484.00;;;4.20
33267;BMP180;19638;49.080;11.896;2022-11-22T05:35:25;94469.00;;;4.10
33267;BMP180;19638;49.080;11.896;2022-11-22T05:39:28;94466.00;;;4.10
33267;BMP180;19638;49.080;11.896;2022-11-22T05:44:05;94468.00;;;4.10
33267;BMP180;19638;49.080;11.896;2022-11-22T05:48:08;94475.00;;;4.00
33267;BMP180;19638;49.080;11.896;2022-11-22T05:52:12;94474.00;;;4.00
33267;BMP180;19638;49.080;11.896;2022-11-22T05:56:46;94472.00;;;3.90
33267;BMP180;19638;49.080;11.896;2022-11-22T06:00:49;94474.00;;;3.90
33267;BMP180;19638;49.080;11.896;2022-11-22T06:04:52;94482.00;;;3.80
33267;BMP180;19638;49.080;11.896;2022-11-22T06:08:57;94497.00;;;3.70
33267;BMP180;19638;49.080;11.896;2022-11-22T06:17:34;94498.00;;;3.50
33267;BMP180;19638;49.080;11.896;2022-11-22T06:21:37;94499.00;;;3.40
33267;BMP180;19638;49.080;11.896;2022-11-22T06:25:42;94513.00;;;3.40
33267;BMP180;19638;49.080;11.896;2022-11-22T06:29:45;94514.00;;;3.30
33267;BMP180;19638;49.080;11.896;2022-11-22T06:33:48;94515.00;;;3.30
33267;BMP180;19638;49.080;11.896;2022-11-22T06:37:51;94523.00;;;3.40
33267;BMP180;19638;49.080;11.896;2022-11-22T06:46:33;94525.00;;;3.60
33267;BMP180;19638;49.080;11.896;2022-11-22T06:50:36;94525.00;;;3.70
33267;BMP180;19638;49.080;11.896;2022-11-22T06:54:39;94534.00;;;3.80
33267;BMP180;19638;49.080;11.896;2022-11-22T06:58:43;94537.00;;;3.90
33267;BMP180;19638;49.080;11.896;2022-11-22T07:02:48;94546.00;;;4.00
33267;BMP180;19638;49.080;11.896;2022-11-22T07:07:22;94541.00;;;4.00
33267;BMP180;19638;49.080;11.896;2022-11-22T07:11:27;94555.00;;;4.10
33267;BMP180;19638;49.080;11.896;2022-11-22T07:15:30;94554.00;;;4.20
33267;BMP180;19638;49.080;11.896;2022-11-22T07:19:35;94566.00;;;4.20
33267;BMP180;19638;49.080;11.896;2022-11-22T07:23:38;94566.00;;;4.30
33267;BMP180;19638;49.080;11.896;2022-11-22T07:27:41;94583.00;;;4.40
33267;BMP180;19638;49.080;11.896;2022-11-22T07:31:44;94586.00;;;4.40
33267;BMP180;19638;49.080;11.896;2022-11-22T07:40:26;94591.00;;;4.60
33267;BMP180;19638;49.080;11.896;2022-11-22T07:44:29;94589.00;;;4.70
33267;BMP180;19638;49.080;11.896;2022-11-22T07:48:32;94592.00;;;4.80
33267;BMP180;19638;49.080;11.896;2022-11-22T07:52:36;94592.00;;;4.90
33267;BMP180;19638;49.080;11.896;2022-11-22T07:57:11;94607.00;;;4.90
33267;BMP180;19638;49.080;11.896;2022-11-22T08:01:16;94616.00;;;4.90
33267;BMP180;19638;49.080;11.896;2022-11-22T08:05:19;94610.00;;;5.00
33267;BMP180;19638;49.080;11.896;2022-11-22T08:09:23;94624.00;;;5.00
33267;BMP180;19638;49.080;11.896;2022-11-22T08:13:27;94624.00;;;5.10
33267;BMP180;19638;49.080;11.896;2022-11-22T08:17:30;94632.00;;;5.30
33267;BMP180;19638;49.080;11.896;2022-11-22T08:21:35;94629.00;;;5.50
33267;BMP180;19638;49.080;11.896;2022-11-22T08:26:09;94631.00;;;5.80
33267;BMP180;19638;49.080;11.896;2022-11-22T08:30:15;94640.00;;;6.10
33267;BMP180;19638;49.080;11.896;2022-11-22T08:34:18;94650.00;;;6.40
33267;BMP180;19638;49.080;11.896;2022-11-22T08:38:22;94652.00;;;6.50
33267;BMP180;19638;49.080;11.896;2022-11-22T08:42:25;94664.00;;;6.60
33267;BMP180;19638;49.080;11.896;2022-11-22T08:46:30;94664.00;;;6.60
33267;BMP180;19638;49.080;11.896;2022-11-22T08:50:33;94666.00;;;6.80
33267;BMP180;19638;49.080;11.896;2022-11-22T08:54:36;94672.00;;;6.80
33267;BMP180;19638;49.080;11.896;2022-11-22T08:58:40;94680.00;;;6.70
33267;BMP180;19638;49.080;11.896;2022-11-22T09:02:45;94675.00;;;6.80
33267;BMP180;19638;49.080;11.896;2022-11-22T09:06:48;94684.00;;;6.90
33267;BMP180;19638;49.080;11.896;2022-11-22T09:11:13;94676.00;;;7.10
33267;BMP180;19638;49.080;11.896;2022-11-22T09:15:16;94688.00;;;7.20
33267;BMP180;19638;49.080;11.896;2022-11-22T09:19:21;94692.00;;;7.30
33267;BMP180;19638;49.080;11.896;2022-11-22T09:23:24;94684.00;;;7.40
33267;BMP180;19638;49.080;11.896;2022-11-22T09:28:01;94681.00;;;7.50
33267;BMP180;19638;49.080;11.896;2022-11-22T09:32:08;94683.00;;;7.60
33267;BMP180;19638;49.080;11.896;2022-11-22T09:36:14;94688.00;;;7.50
33267;BMP180;19638;49.080;11.896;2022-11-22T09:40:17;94697.00;;;7.40
33267;BMP180;19638;49.080;11.896;2022-11-22T09:44:28;94692.00;;;7.30
33267;BMP180;19638;49.080;11.896;2022-11-22T09:49:00;94700.00;;;7.20
33267;BMP180;19638;49.080;11.896;2022-11-22T09:53:12;94703.00;;;7.20
33267;BMP180;19638;49.080;11.896;2022-11-22T09:57:20;94701.00;;;7.20
33267;BMP180;19638;49.080;11.896;2022-11-22T10:01:26;94710.00;;;7.30
33267;BMP180;19638;49.080;11.896;2022-11-22T10:05:40;94720.00;;;7.50
33267;BMP180;19638;49.080;11.896;2022-11-22T10:09:50;94723.00;;;7.70
33267;BMP180;19638;49.080;11.896;2022-11-22T10:13:58;94716.00;;;8.00
33267;BMP180;19638;49.080;11.896;2022-11-22T10:18:05;94731.00;;;8.30
33267;BMP180;19638;49.080;11.896;2022-11-22T10:22:13;94728.00;;;8.50
33267;BMP180;19638;49.080;11.896;2022-11-22T10:26:21;94740.00;;;8.60
33267;BMP180;19638;49.080;11.896;2022-11-22T10:30:28;94733.00;;;8.70
33267;BMP180;19638;49.080;11.896;2022-11-22T10:34:43;94726.00;;;8.80
33267;BMP180;19638;49.080;11.896;2022-11-22T10:39:07;94729.00;;;8.90
33267;BMP180;19638;49.080;11.896;2022-11-22T10:43:22;94720.00;;;9.10
33267;BMP180;19638;49.080;11.896;2022-11-22T10:47:36;94730.00;;;9.20
33267;BMP180;19638;49.080;11.896;2022-11-22T10:51:48;94744.00;;;9.40
33267;BMP180;19638;49.080;11.896;2022-11-22T10:56:20;94753.00;;;9.50
33267;BMP180;19638;49.080;11.896;2022-11-22T11:00:28;94757.00;;;9.60
33267;BMP180;19638;49.080;11.896;2022-11-22T11:04:36;94753.00;;;9.60
33267;BMP180;19638;49.080;11.896;2022-11-22T11:09:11;94755.00;;;9.50
33267;BMP180;19638;49.080;11.896;2022-11-22T11:13:41;94748.00;;;9.40
33267;BMP180;19638;49.080;11.896;2022-11-22T11:17:50;94742.00;;;9.40
33267;BMP180;19638;49.080;11.896;2022-11-22T11:26:52;94744.00;;;9.60
33267;BMP180;19638;49.080;11.896;2022-11-22T11:30:57;94745.00;;;9.60
33267;BMP180;19638;49.080;11.896;2022-11-22T11:35:05;94740.00;;;9.70
33267;BMP180;19638;49.080;11.896;2022-11-22T11:39:19;94736.00;;;9.70
33267;BMP180;19638;49.080;11.896;2022-11-22T11:43:47;94726.00;;;9.80
33267;BMP180;19638;49.080;11.896;2022-11-22T11:47:50;94713.00;;;9.90
33267;BMP180;19638;49.080;11.896;2022-11-22T11:52:28;94712.00;;;10.00
33267;BMP180;19638;49.080;11.896;2022-11-22T11:56:38;94715.00;;;10.00
33267;BMP180;19638;49.080;11.896;2022-11-22T12:00:42;94709.00;;;10.00
33267;BMP180;19638;49.080;11.896;2022-11-22T12:04:48;94710.00;;;9.90
33267;BMP180;19638;49.080;11.896;2022-11-22T12:08:54;94717.00;;;9.90
33267;BMP180;19638;49.080;11.896;2022-11-22T12:13:30;94709.00;;;9.90
33267;BMP180;19638;49.080;11.896;2022-11-22T12:18:05;94713.00;;;10.00
33267;BMP180;19638;49.080;11.896;2022-11-22T12:22:13;94710.00;;;10.00
33267;BMP180;19638;49.080;11.896;2022-11-22T12:26:42;94714.00;;;10.10
33267;BMP180;19638;49.080;11.896;2022-11-22T12:30:50;94701.00;;;10.20
33267;BMP180;19638;49.080;11.896;2022-11-22T12:34:59;94701.00;;;10.30
33267;BMP180;19638;49.080;11.896;2022-11-22T12:39:04;94698.00;;;10.50
33267;BMP180;19638;49.080;11.896;2022-11-22T12:43:19;94705.00;;;10.80
33267;BMP180;19638;49.080;11.896;2022-11-22T12:52:24;94697.00;;;10.90
33267;BMP180;19638;49.080;11.896;2022-11-22T12:56:38;94693.00;;;10.90
33267;BMP180;19638;49.080;11.896;2022-11-22T13:01:11;94691.00;;;10.80
33267;BMP180;19638;49.080;11.896;2022-11-22T13:05:17;94689.00;;;10.60
33267;BMP180;19638;49.080;11.896;2022-11-22T13:09:27;94696.00;;;10.40
33267;BMP180;19638;49.080;11.896;2022-11-22T13:13:33;94683.00;;;10.40
33267;BMP180;19638;49.080;11.896;2022-11-22T13:18:08;94682.00;;;10.30
33267;BMP180;19638;49.080;11.896;2022-11-22T13:22:17;94701.00;;;10.30
33267;BMP180;19638;49.080;11.896;2022-11-22T13:26:31;94692.00;;;10.40
33267;BMP180;19638;49.080;11.896;2022-11-22T13:30:37;94696.00;;;10.40
33267;BMP180;19638;49.080;11.896;2022-11-22T13:34:59;94683.00;;;10.30
33267;BMP180;19638;49.080;11.896;2022-11-22T13:39:19;94683.00;;;10.20
33267;BMP180;19638;49.080;11.896;2022-11-22T13:43:50;94693.00;;;10.10
33267;BMP180;19638;49.080;11.896;2022-11-22T13:47:53;94688.00;;;10.10
33267;BMP180;19638;49.080;11.896;2022-11-22T13:52:00;94697.00;;;10.00
33267;BMP180;19638;49.080;11.896;2022-11-22T14:00:47;94698.00;;;9.80
33267;BMP180;19638;49.080;11.896;2022-11-22T14:04:52;94702.00;;;9.80
33267;BMP180;19638;49.080;11.896;2022-11-22T14:13:50;94699.00;;;9.60
33267;BMP180;19638;49.080;11.896;2022-11-22T14:22:28;94711.00;;;9.60
33267;BMP180;19638;49.080;11.896;2022-11-22T14:27:01;94716.00;;;9.50
33267;BMP180;19638;49.080;11.896;2022-11-22T14:31:17;94721.00;;;9.50
33267;BMP180;19638;49.080;11.896;2022-11-22T14:35:24;94719.00;;;9.40
33267;BMP180;19638;49.080;11.896;2022-11-22T14:40:01;94728.00;;;9.30
33267;BMP180;19638;49.080;11.896;2022-11-22T14:54:03;94732.00;;;9.10
33267;BMP180;19638;49.080;11.896;2022-11-22T14:58:12;94740.00;;;9.00
33267;BMP180;19638;49.080;11.896;2022-11-22T15:02:37;94742.00;;;8.90
33267;BMP180;19638;49.080;11.896;2022-11-22T15:06:56;94732.00;;;8.80
33267;BMP180;19638;49.080;11.896;2022-11-22T15:15:53;94753.00;;;8.60
33267;BMP180;19638;49.080;11.896;2022-11-22T15:20:34;94749.00;;;8.40
33267;BMP180;19638;49.080;11.896;2022-11-22T15:24:58;94747.00;;;8.30
33267;BMP180;19638;49.080;11.896;2022-11-22T15:29:25;94756.00;;;8.30
33267;BMP180;19638;49.080;11.896;2022-11-22T15:34:00;94755.00;;;8.20
33267;BMP180;19638;49.080;11.896;2022-11-22T15:38:36;94770.00;;;8.10
33267;BMP180;19638;49.080;11.896;2022-11-22T15:43:39;94787.00;;;8.00
33267;BMP180;19638;49.080;11.896;2022-11-22T15:48:06;94784.00;;;8.00
33267;BMP180;19638;49.080;11.896;2022-11-22T15:52:31;94799.00;;;7.90
33267;BMP180;19638;49.080;11.896;2022-11-22T15:57:19;94806.00;;;7.90
33267;BMP180;19638;49.080;11.896;2022-11-22T16:01:27;94806.00;;;7.80
33267;BMP180;19638;49.080;11.896;2022-11-22T16:06:03;94802.00;;;7.80
33267;BMP180;19638;49.080;11.896;2022-11-22T16:10:18;94800.00;;;7.70
33267;BMP180;19638;49.080;11.896;2022-11-22T16:14:49;94801.00;;;7.70
33267;BMP180;19638;49.080;11.896;2022-11-22T16:19:16;94803.00;;;7.60
33267;BMP180;19638;49.080;11.896;2022-11-22T16:23:25;94824.00;;;7.60
33267;BMP180;19638;49.080;11.896;2022-11-22T16:28:05;94816.00;;;7.50
33267;BMP180;19638;49.080;11.896;2022-11-22T16:32:10;94811.00;;;7.40
33267;BMP180;19638;49.080;11.896;2022-11-22T16:36:44;94815.00;;;7.40
33267;BMP180;19638;49.080;11.896;2022-11-22T16:40:50;94815.00;;;7.40
33267;BMP180;19638;49.080;11.896;2022-11-22T16:44:54;94815.00;;;7.30
33267;BMP180;19638;49.080;11.896;2022-11-22T16:49:12;94822.00;;;7.30
33267;BMP180;19638;49.080;11.896;2022-11-22T16:53:39;94820.00;;;7.30
33267;BMP180;19638;49.080;11.896;2022-11-22T16:57:44;94809.00;;;7.30
33267;BMP180;19638;49.080;11.896;2022-11-22T17:01:48;94805.00;;;7.30
33267;BMP180;19638;49.080;11.896;2022-11-22T17:10:59;94817.00;;;7.30
33267;BMP180;19638;49.080;11.896;2022-11-22T17:15:09;94817.00;;;7.30
33267;BMP180;19638;49.080;11.896;2022-11-22T17:19:38;94820.00;;;7.30
33267;BMP180;19638;49.080;11.896;2022-11-22T17:23:57;94826.00;;;7.40
33267;BMP180;19638;49.080;11.896;2022-11-22T17:28:01;94823.00;;;7.30
33267;BMP180;19638;49.080;11.896;2022-11-22T17:32:36;94828.00;;;7.30
33267;BMP180;19638;49.080;11.896;2022-11-22T17:36:45;94829.00;;;7.20
33267;BMP180;19638;49.080;11.896;2022-11-22T17:40:48;94833.00;;;7.30
33267;BMP180;19638;49.080;11.896;2022-11-22T17:45:24;94840.00;;;7.20
33267;BMP180;19638;49.080;11.896;2022-11-22T17:49:29;94846.00;;;7.20
33267;BMP180;19638;49.080;11.896;2022-11-22T17:54:03;94857.00;;;7.20
33267;BMP180;19638;49.080;11.896;2022-11-22T17:58:07;94855.00;;;7.10
33267;BMP180;19638;49.080;11.896;2022-11-22T18:02:44;94854.00;;;7.10
33267;BMP180;19638;49.080;11.896;2022-11-22T18:07:22;94863.00;;;7.00
33267;BMP180;19638;49.080;11.896;2022-11-22T18:11:29;94863.00;;;7.00
33267;BMP180;19638;49.080;11.896;2022-11-22T18:15:32;94856.00;;;7.00
33267;BMP180;19638;49.080;11.896;2022-11-22T18:19:35;94860.00;;;7.00
33267;BMP180;19638;49.080;11.896;2022-11-22T18:28:51;94867.00;;;6.90
33267;BMP180;19638;49.080;11.896;2022-11-22T18:33:31;94870.00;;;6.90
33267;BMP180;19638;49.080;11.896;2022-11-22T18:38:06;94873.00;;;6.90
33267;BMP180;19638;49.080;11.896;2022-11-22T18:42:40;94885.00;;;6.90
33267;BMP180;19638;49.080;11.896;2022-11-22T18:47:18;94874.00;;;6.90
33267;BMP180;19638;49.080;11.896;2022-11-22T18:51:21;94884.00;;;6.90
33267;BMP180;19638;49.080;11.896;2022-11-22T18:56:01;94879.00;;;6.90
33267;BMP180;19638;49.080;11.896;2022-11-22T19:00:35;94893.00;;;6.80
33267;BMP180;19638;49.080;11.896;2022-11-22T19:05:14;94883.00;;;6.70
33267;BMP180;19638;49.080;11.896;2022-11-22T19:14:22;94896.00;;;6.70
33267;BMP180;19638;49.080;11.896;2022-11-22T19:18:59;94893.00;;;6.60
33267;BMP180;19638;49.080;11.896;2022-11-22T19:28:14;94887.00;;;6.60
33267;BMP180;19638;49.080;11.896;2022-11-22T19:32:48;94893.00;;;6.60
33267;BMP180;19638;49.080;11.896;2022-11-22T19:42:01;94892.00;;;6.60
33267;BMP180;19638;49.080;11.896;2022-11-22T19:46:40;94894.00;;;6.60
33267;BMP180;19638;49.080;11.896;2022-11-22T19:50:43;94896.00;;;6.60
33267;BMP180;19638;49.080;11.896;2022-11-22T19:54:46;94908.00;;;6.60
33267;BMP180;19638;49.080;11.896;2022-11-22T19:59:25;94898.00;;;6.60
33267;BMP180;19638;49.080;11.896;2022-11-22T20:04:03;94907.00;;;6.50
33267;BMP180;19638;49.080;11.896;2022-11-22T20:08:07;94923.00;;;6.50
33267;BMP180;19638;49.080;11.896;2022-11-22T20:12:42;94919.00;;;6.50
33267;BMP180;19638;49.080;11.896;2022-11-22T20:16:45;94921.00;;;6.40
33267;BMP180;19638;49.080;11.896;2022-11-22T20:21:23;94926.00;;;6.40
33267;BMP180;19638;49.080;11.896;2022-11-22T20:25:59;94925.00;;;6.30
33267;BMP180;19638;49.080;11.896;2022-11-22T20:39:48;94924.00;;;6.20
33267;BMP180;19638;49.080;11.896;2022-11-22T20:43:51;94932.00;;;6.20
33267;BMP180;19638;49.080;11.896;2022-11-22T20:53:03;94928.00;;;6.20
33267;BMP180;19638;49.080;11.896;2022-11-22T20:57:42;94931.00;;;6.20
33267;BMP180;19638;49.080;11.896;2022-11-22T21:02:16;94925.00;;;6.10
33267;BMP180;19638;49.080;11.896;2022-11-22T21:06:53;94928.00;;;6.10
33267;BMP180;19638;49.080;11.896;2022-11-22T21:11:28;94930.00;;;6.00
33267;BMP180;19638;49.080;11.896;2022-11-22T21:15:34;94934.00;;;5.90
33267;BMP180;19638;49.080;11.896;2022-11-22T21:20:08;94938.00;;;5.90
33267;BMP180;19638;49.080;11.896;2022-11-22T21:29:19;94949.00;;;5.90
33267;BMP180;19638;49.080;11.896;2022-11-22T21:33:24;94949.00;;;6.00
33267;BMP180;19638;49.080;11.896;2022-11-22T21:37:57;94947.00;;;6.00
33267;BMP180;19638;49.080;11.896;2022-11-22T21:42:34;94949.00;;;6.00
33267;BMP180;19638;49.080;11.896;2022-11-22T21:46:38;94949.00;;;6.00
33267;BMP180;19638;49.080;11.896;2022-11-22T21:50:43;94957.00;;;6.00
33267;BMP180;19638;49.080;11.896;2022-11-22T21:54:46;94956.00;;;5.90
33267;BMP180;19638;49.080;11.896;2022-11-22T21:58:49;94954.00;;;5.90
33267;BMP180;19638;49.080;11.896;2022-11-22T22:02:52;94955.00;;;5.90
33267;BMP180;19638;49.080;11.896;2022-11-22T22:06:57;94958.00;;;5.90
33267;BMP180;19638;49.080;11.896;2022-11-22T22:11:30;94972.00;;;5.90
33267;BMP180;19638;49.080;11.896;2022-11-22T22:15:34;94965.00;;;5.90
33267;BMP180;19638;49.080;11.896;2022-11-22T22:19:37;94964.00;;;5.90
33267;BMP180;19638;49.080;11.896;2022-11-22T22:23:43;94966.00;;;5.90
33267;BMP180;19638;49.080;11.896;2022-11-22T22:27:46;94972.00;;;5.90
33267;BMP180;19638;49.080;11.896;2022-11-22T22:31:49;94962.00;;;5.80
33267;BMP180;19638;49.080;11.896;2022-11-22T22:35:52;94968.00;;;5.80
33267;BMP180;19638;49.080;11.896;2022-11-22T22:39:57;94978.00;;;5.90
33267;BMP180;19638;49.080;11.896;2022-11-22T22:44:00;94977.00;;;5.90
33267;BMP180;19638;49.080;11.896;2022-11-22T22:52:37;94981.00;;;5.90
33267;BMP180;19638;49.080;11.896;2022-11-22T22:56:41;94985.00;;;5.90
33267;BMP180;19638;49.080;11.896;2022-11-22T23:00:45;94989.00;;;5.90
33267;BMP180;19638;49.080;11.896;2022-11-22T23:04:48;94989.00;;;5.80
33267;BMP180;19638;49.080;11.896;2022-11-22T23:08:52;94985.00;;;5.80
33267;BMP180;19638;49.080;11.896;2022-11-22T23:12:56;95003.00;;;5.80
33267;BMP180;19638;49.080;11.896;2022-11-22T23:16:59;95005.00;;;5.80
33267;BMP180;19638;49.080;11.896;2022-11-22T23:21:04;94999.00;;;5.80
33267;BMP180;19638;49.080;11.896;2022-11-22T23:25:08;95006.00;;;5.70
33267;BMP180;19638;49.080;11.896;2022-11-22T23:29:13;95005.00;;;5.70
33267;BMP180;19638;49.080;11.896;2022-11-22T23:33:16;95016.00;;;5.70
33267;BMP180;19638;49.080;11.896;2022-11-22T23:37:52;95005.00;;;5.70
33267;BMP180;19638;49.080;11.896;2022-11-22T23:41:56;95010.00;;;5.80
33267;BMP180;19638;49.080;11.896;2022-11-22T23:46:00;95015.00;;;5.80
33267;BMP180;19638;49.080;11.896;2022-11-22T23:50:34;95011.00;;;5.80
33267;BMP180;19638;49.080;11.896;2022-11-22T23:54:38;95010.00;;;5.80
33267;BMP180;19638;49.080;11.896;2022-11-22T23:59:14;95012.00;;;5.80
